This is the latest recevied weather packets stored in our database for station/object OE7DRT-13. If no packets are shown the sender has not sent any weather packets the latest 10 day(s).
| Time | Temp. | Humidity | Pressure | Rain* | Wind** | Luminosity | Snow |
|---|---|---|---|---|---|---|---|
| 1777638664 | 18.89° C | 33% | 1024.3 hPa | 0 mm | - | - | - |
| 1777635626 | 16.67° C | 35% | 1024.5 hPa | 0 mm | - | - | - |
| 1777634439 | 15.56° C | 38% | 1024.6 hPa | 0 mm | - | - | - |
| 1777634117 | 15.56° C | 37% | 1024.7 hPa | 0 mm | - | - | - |
| 1777633232 | 15° C | 40% | 1024.8 hPa | 0 mm | - | - | - |
| 1777631422 | 14.44° C | 40% | 1024.9 hPa | 0 mm | - | - | - |
| 1777631140 | 14.44° C | 40% | 1025 hPa | 0 mm | - | - | - |
| 1777627520 | 12.22° C | 43% | 1025.4 hPa | 0 mm | - | - | - |
| 1777625448 | 10° C | 48% | 1025.7 hPa | 0 mm | - | - | - |
| 1777624522 | 8.89° C | 50% | 1025.9 hPa | 0 mm | - | - | - |
| 1777622430 | 7.22° C | 59% | 1025.9 hPa | 0 mm | - | - | - |
| 1777622129 | 6.67° C | 59% | 1025.9 hPa | 0 mm | - | - | - |
| 1777621847 | 6.67° C | 60% | 1025.9 hPa | 0 mm | - | - | - |
| 1777620922 | 5.56° C | 63% | 1025.9 hPa | 0 mm | - | - | - |
| 1777618528 | 2.78° C | 79% | 1026.2 hPa | 0 mm | - | - | - |
| 1777617341 | 1.67° C | 83% | 1026 hPa | 0 mm | - | - | - |
| 1777616717 | 1.67° C | 85% | 1026 hPa | 0 mm | - | - | - |
| 1777614325 | 1.11° C | 85% | 1026 hPa | 0 mm | - | - | - |
| 1777612836 | 1.11° C | 86% | 1026.1 hPa | 0 mm | - | - | - |
| 1777610422 | 1.11° C | 85% | 1026.1 hPa | 0 mm | - | - | - |
| 1777609235 | 1.11° C | 86% | 1026 hPa | 0 mm | - | - | - |
| 1777608330 | 1.67° C | 85% | 1025.8 hPa | 0 mm | - | - | - |
| 1777608029 | 1.67° C | 83% | 1025.9 hPa | 0 mm | - | - | - |
| 1777607426 | 1.67° C | 85% | 1025.8 hPa | 0 mm | - | - | - |
| 1777606822 | 1.67° C | 85% | 1025.9 hPa | 0 mm | - | - | - |
* Rain latest hour (hover to see other rain measurements)
** Current wind speed in m/s (hover to see current wind gust speed)